O-RH(METAR)
02/18 15:00
METAR O-RH 180600Z 26012G26KT 9999 FEW030 05/M08 Q1021 RMK 2CU030
A3018=
戻る
トップページへ戻る
IMOC Co,.Ltd.